Time;durP1;ratioP1;P1;durP2;ratioP2;P2;SDS_P1;SDS_P2;PMS_P1;PMS_P2;Temp;Humidity;BMP_temperature;BMP_pressure;BME280_temperature;BME280_humidity;BME280_pressure;Samples;Min_cycle;Max_cycle;Signal;HPM_P1;HPM_P2
2022/03/28 00:01:44;;;;;;;;;;;10.40;47.50;;;;;;8404376;28;19943;-73
2022/03/28 00:05:46;;;;;;;;;;;10.30;47.40;;;;;;8387272;28;20022;-73
2022/03/28 00:09:47;;;;;;;;;;;10.20;47.60;;;;;;8391617;28;19989;-72
2022/03/28 00:13:49;;;;;;;;;;;10.10;47.70;;;;;;8407796;28;19928;-72
2022/03/28 00:17:51;;;;;;;;;;;10.10;48.00;;;;;;8382721;28;20323;-73
2022/03/28 00:21:52;;;;;;;;;;;10.00;48.10;;;;;;8407348;28;19955;-72
2022/03/28 00:25:54;;;;;;;;;;;9.90;48.70;;;;;;8417617;28;19950;-73
2022/03/28 00:29:56;;;;;;;;;;;9.90;48.70;;;;;;8412847;28;19920;-73
2022/03/28 00:33:57;;;;;;;;;;;9.80;48.70;;;;;;8411801;28;19927;-73
2022/03/28 00:37:59;;;;;;;;;;;9.70;48.80;;;;;;8400531;28;19927;-73
2022/03/28 00:42:00;;;;;;;;;;;9.60;48.80;;;;;;8409983;28;19929;-73
2022/03/28 00:46:03;;;;;;;;;;;9.60;49.40;;;;;;8411852;28;19928;-72
2022/03/28 00:50:04;;;;;;;;;;;9.50;48.90;;;;;;8406963;28;19928;-73
2022/03/28 00:54:07;;;;;;;;;;;9.40;48.60;;;;;;8411306;28;19920;-73
2022/03/28 00:58:09;;;;;;;;;;;9.30;48.50;;;;;;8406133;28;19920;-73
2022/03/28 01:02:10;;;;;;;;;;;9.20;48.90;;;;;;8390545;28;19920;-72
2022/03/28 01:06:12;;;;;;;;;;;9.10;48.90;;;;;;8385023;28;20386;-72
2022/03/28 01:10:14;;;;;;;;;;;9.00;48.90;;;;;;8395883;28;19931;-73
2022/03/28 01:14:16;;;;;;;;;;;8.90;49.10;;;;;;8407108;28;19924;-72
2022/03/28 01:18:18;;;;;;;;;;;8.90;49.20;;;;;;8407665;28;19920;-72
2022/03/28 01:22:20;;;;;;;;;;;8.80;49.20;;;;;;8391189;28;19928;-73
2022/03/28 01:26:22;;;;;;;;;;;8.70;49.40;;;;;;8407480;28;19935;-73
2022/03/28 01:30:24;;;;;;;;;;;8.70;49.40;;;;;;8406858;28;19931;-73
2022/03/28 01:34:26;;;;;;;;;;;8.60;49.70;;;;;;8407418;28;20335;-72
2022/03/28 01:38:27;;;;;;;;;;;8.40;49.80;;;;;;8402382;28;19932;-72
2022/03/28 01:42:29;;;;;;;;;;;8.40;50.00;;;;;;8407843;28;19921;-72
2022/03/28 01:46:38;;;;;;;;;;;8.40;50.60;;;;;;8398649;28;19935;-73
2022/03/28 01:50:40;;;;;;;;;;;8.30;50.00;;;;;;8390727;28;19985;-73
2022/03/28 01:54:41;;;;;;;;;;;8.40;50.20;;;;;;8428148;28;19923;-72
2022/03/28 01:58:43;;;;;;;;;;;8.40;50.20;;;;;;8422518;28;19968;-72
2022/03/28 02:02:48;;;;;;;;;;;8.40;50.20;;;;;;8419981;28;19928;-72
2022/03/28 02:06:49;;;;;;;;;;;8.30;50.20;;;;;;8425117;28;19927;-72
2022/03/28 02:10:51;;;;;;;;;;;8.30;50.50;;;;;;8417692;28;19920;-73
2022/03/28 02:14:53;;;;;;;;;;;8.20;50.90;;;;;;8416765;28;19931;-72
2022/03/28 02:18:56;;;;;;;;;;;8.10;50.80;;;;;;8423877;28;19924;-72
2022/03/28 02:22:58;;;;;;;;;;;8.10;50.90;;;;;;8423865;28;19927;-73
2022/03/28 02:26:59;;;;;;;;;;;8.00;51.30;;;;;;8422793;28;19970;-73
2022/03/28 02:31:01;;;;;;;;;;;7.90;51.20;;;;;;8423066;28;19941;-73
2022/03/28 02:35:04;;;;;;;;;;;7.90;51.50;;;;;;8405819;28;19920;-72
2022/03/28 02:39:06;;;;;;;;;;;7.90;51.60;;;;;;8421944;28;20268;-72
2022/03/28 02:43:08;;;;;;;;;;;8.00;51.20;;;;;;8421176;28;19920;-73
2022/03/28 02:47:09;;;;;;;;;;;7.90;50.80;;;;;;8418257;28;19920;-72
2022/03/28 02:51:11;;;;;;;;;;;7.90;50.90;;;;;;8402769;28;19927;-72
2022/03/28 02:55:14;;;;;;;;;;;7.80;51.40;;;;;;8419630;28;19924;-73
2022/03/28 02:59:15;;;;;;;;;;;7.70;51.10;;;;;;8418338;28;19943;-72
2022/03/28 03:03:17;;;;;;;;;;;7.70;51.30;;;;;;8424146;28;19927;-73
2022/03/28 03:07:19;;;;;;;;;;;7.60;51.30;;;;;;8428278;28;19920;-72
2022/03/28 03:11:20;;;;;;;;;;;7.60;51.50;;;;;;8421082;28;19920;-72
2022/03/28 03:15:22;;;;;;;;;;;7.50;52.00;;;;;;8426884;28;19924;-73
2022/03/28 03:19:24;;;;;;;;;;;7.30;52.00;;;;;;8422559;28;19950;-72
2022/03/28 03:23:26;;;;;;;;;;;7.30;51.90;;;;;;8424840;28;19931;-72
2022/03/28 03:27:28;;;;;;;;;;;7.30;52.20;;;;;;8422723;28;20012;-72
2022/03/28 03:31:30;;;;;;;;;;;7.20;51.90;;;;;;8423903;28;19924;-72
2022/03/28 03:35:32;;;;;;;;;;;7.20;52.00;;;;;;8404191;28;19944;-72
2022/03/28 03:39:35;;;;;;;;;;;7.20;51.90;;;;;;8426248;28;19931;-72
2022/03/28 03:43:37;;;;;;;;;;;7.10;51.70;;;;;;8422963;28;19939;-72
2022/03/28 03:47:38;;;;;;;;;;;7.10;51.80;;;;;;8427981;28;19927;-72
2022/03/28 03:51:40;;;;;;;;;;;7.10;51.60;;;;;;8421561;28;19931;-72
2022/03/28 03:55:42;;;;;;;;;;;7.10;51.60;;;;;;8420276;28;19928;-72
2022/03/28 03:59:43;;;;;;;;;;;7.00;51.50;;;;;;8404748;28;20291;-73
2022/03/28 04:03:45;;;;;;;;;;;6.90;51.30;;;;;;8424464;28;20412;-72
2022/03/28 04:07:47;;;;;;;;;;;6.80;51.40;;;;;;8430516;28;19927;-72
2022/03/28 04:11:48;;;;;;;;;;;6.70;51.50;;;;;;8418884;28;19927;-72
2022/03/28 04:15:51;;;;;;;;;;;6.70;51.60;;;;;;8398732;28;19923;-72
2022/03/28 04:19:52;;;;;;;;;;;6.60;51.70;;;;;;8421798;28;19946;-72
2022/03/28 04:23:54;;;;;;;;;;;6.50;51.80;;;;;;8411394;28;20007;-72
2022/03/28 04:27:56;;;;;;;;;;;6.50;52.00;;;;;;8420523;28;19924;-72
2022/03/28 04:31:57;;;;;;;;;;;6.40;52.50;;;;;;8403878;28;19930;-72
2022/03/28 04:35:59;;;;;;;;;;;6.30;52.50;;;;;;8412852;28;19931;-71
2022/03/28 04:40:02;;;;;;;;;;;6.30;52.70;;;;;;8423407;28;19927;-72
2022/03/28 04:44:04;;;;;;;;;;;6.20;52.90;;;;;;8418148;28;20356;-72
2022/03/28 04:48:06;;;;;;;;;;;6.20;53.40;;;;;;8420900;28;19924;-72
2022/03/28 04:52:08;;;;;;;;;;;6.20;53.50;;;;;;8417025;28;19935;-72
2022/03/28 04:56:09;;;;;;;;;;;6.20;53.80;;;;;;8420322;28;19927;-71
2022/03/28 05:00:11;;;;;;;;;;;6.10;53.90;;;;;;8418652;28;19920;-72
2022/03/28 05:04:13;;;;;;;;;;;6.10;54.20;;;;;;8419312;28;19943;-72
2022/03/28 05:08:15;;;;;;;;;;;6.00;54.10;;;;;;8420102;28;20382;-72
2022/03/28 05:12:16;;;;;;;;;;;6.00;54.10;;;;;;8401108;28;20273;-71
2022/03/28 05:16:18;;;;;;;;;;;6.00;54.50;;;;;;8415545;28;19919;-72
2022/03/28 05:20:20;;;;;;;;;;;5.90;54.70;;;;;;8425740;28;19920;-71
2022/03/28 05:24:22;;;;;;;;;;;5.90;55.00;;;;;;8427472;28;19920;-71
2022/03/28 05:28:23;;;;;;;;;;;5.90;54.70;;;;;;8430182;28;19928;-71
2022/03/28 05:32:25;;;;;;;;;;;5.90;55.30;;;;;;8428515;28;20291;-72
2022/03/28 05:36:27;;;;;;;;;;;5.90;55.30;;;;;;8405716;28;19924;-72
2022/03/28 05:40:28;;;;;;;;;;;5.80;55.20;;;;;;8431845;28;20264;-71
2022/03/28 05:44:30;;;;;;;;;;;5.80;55.20;;;;;;8428693;28;20382;-72
2022/03/28 05:48:32;;;;;;;;;;;5.80;55.50;;;;;;8427225;28;19920;-72
2022/03/28 05:52:33;;;;;;;;;;;5.60;55.80;;;;;;8407687;28;19924;-72
2022/03/28 05:56:35;;;;;;;;;;;5.60;56.40;;;;;;8422723;28;19928;-73
2022/03/28 06:00:37;;;;;;;;;;;5.60;56.70;;;;;;8416246;28;19930;-72
2022/03/28 06:04:39;;;;;;;;;;;5.60;56.90;;;;;;8416527;28;19920;-71
2022/03/28 06:08:41;;;;;;;;;;;5.60;57.00;;;;;;8419039;28;19920;-71
2022/03/28 06:12:43;;;;;;;;;;;5.70;57.20;;;;;;8423218;28;19930;-72
2022/03/28 06:16:44;;;;;;;;;;;5.80;57.20;;;;;;8409105;28;19946;-72
2022/03/28 06:20:46;;;;;;;;;;;5.90;58.10;;;;;;8406705;28;19920;-71
2022/03/28 06:24:48;;;;;;;;;;;6.00;57.90;;;;;;8403857;28;19920;-72
2022/03/28 06:28:49;;;;;;;;;;;6.20;58.00;;;;;;8424786;28;20232;-72
2022/03/28 06:32:51;;;;;;;;;;;6.30;58.10;;;;;;8420210;28;19998;-71
2022/03/28 06:36:53;;;;;;;;;;;6.50;58.70;;;;;;8424112;28;19935;-72
2022/03/28 06:40:54;;;;;;;;;;;6.60;58.90;;;;;;8405388;28;19927;-72
2022/03/28 06:44:56;;;;;;;;;;;6.80;58.90;;;;;;8413416;28;19920;-71
2022/03/28 06:48:58;;;;;;;;;;;6.90;59.40;;;;;;8424471;28;19920;-72
2022/03/28 06:53:00;;;;;;;;;;;7.00;59.70;;;;;;8409584;28;19995;-73
2022/03/28 06:57:02;;;;;;;;;;;7.20;59.70;;;;;;8390930;28;19935;-72
2022/03/28 07:01:04;;;;;;;;;;;7.30;60.60;;;;;;8395517;28;20358;-72
2022/03/28 07:05:07;;;;;;;;;;;7.40;60.20;;;;;;8396115;28;19934;-72
2022/03/28 07:09:09;;;;;;;;;;;7.50;60.70;;;;;;8417528;28;20382;-72
2022/03/28 07:13:10;;;;;;;;;;;7.60;61.00;;;;;;8420330;28;19928;-72
2022/03/28 07:17:12;;;;;;;;;;;7.80;60.90;;;;;;8425334;28;19923;-71
2022/03/28 07:21:14;;;;;;;;;;;7.90;61.20;;;;;;8421288;28;19927;-72
2022/03/28 07:25:16;;;;;;;;;;;8.00;61.20;;;;;;8427350;28;19950;-72
2022/03/28 07:29:17;;;;;;;;;;;8.20;61.50;;;;;;8424481;28;19947;-72
2022/03/28 07:33:19;;;;;;;;;;;8.30;61.90;;;;;;8403501;28;19924;-72
2022/03/28 07:37:22;;;;;;;;;;;8.50;61.80;;;;;;8422206;28;19943;-72
2022/03/28 07:41:24;;;;;;;;;;;8.60;62.00;;;;;;8408218;28;19930;-72
2022/03/28 07:45:26;;;;;;;;;;;8.80;62.30;;;;;;8418663;28;20402;-73
2022/03/28 07:49:30;;;;;;;;;;;8.90;62.40;;;;;;8423271;28;19931;-72
2022/03/28 07:53:32;;;;;;;;;;;9.10;62.40;;;;;;8416105;28;19920;-72
2022/03/28 07:57:35;;;;;;;;;;;9.30;62.70;;;;;;8420912;28;19920;-72
2022/03/28 08:01:36;;;;;;;;;;;9.40;62.60;;;;;;8400312;28;19927;-72
2022/03/28 08:05:38;;;;;;;;;;;9.50;62.90;;;;;;8411123;28;19976;-72
2022/03/28 08:09:40;;;;;;;;;;;9.70;62.80;;;;;;8391681;28;19950;-71
2022/03/28 08:13:42;;;;;;;;;;;9.90;63.30;;;;;;8407712;28;19932;-71
2022/03/28 08:17:44;;;;;;;;;;;10.00;62.50;;;;;;8392548;28;19924;-72
2022/03/28 08:21:46;;;;;;;;;;;10.20;62.60;;;;;;8389247;28;19928;-72
2022/03/28 08:25:51;;;;;;;;;;;10.30;62.70;;;;;;8412869;28;19981;-72
2022/03/28 08:29:53;;;;;;;;;;;10.50;62.80;;;;;;8421539;28;19927;-72
2022/03/28 08:33:54;;;;;;;;;;;10.70;63.40;;;;;;8414332;28;19927;-72
2022/03/28 08:37:56;;;;;;;;;;;10.90;63.70;;;;;;8418892;28;20287;-72
2022/03/28 08:41:57;;;;;;;;;;;11.10;64.20;;;;;;8405315;28;19930;-72
2022/03/28 08:46:01;;;;;;;;;;;11.30;64.10;;;;;;8423356;28;19920;-72
2022/03/28 08:50:02;;;;;;;;;;;11.50;64.20;;;;;;8421081;28;19971;-72
2022/03/28 08:54:04;;;;;;;;;;;11.70;64.70;;;;;;8420050;28;19927;-72
2022/03/28 08:58:06;;;;;;;;;;;11.90;64.70;;;;;;8425565;28;19927;-72
2022/03/28 09:02:26;;;;;;;;;;;12.10;65.30;;;;;;8424483;28;19931;-72
2022/03/28 09:06:38;;;;;;;;;;;12.20;65.40;;;;;;8419408;28;20282;-72
2022/03/28 09:10:46;;;;;;;;;;;12.50;65.70;;;;;;8403486;28;20263;-72
2022/03/28 09:14:54;;;;;;;;;;;12.70;66.20;;;;;;8419223;28;20001;-72
2022/03/28 09:18:56;;;;;;;;;;;12.90;66.80;;;;;;8401011;28;19920;-72
2022/03/28 09:22:58;;;;;;;;;;;13.10;67.00;;;;;;8405518;28;19931;-72
2022/03/28 09:27:10;;;;;;;;;;;13.30;67.10;;;;;;8420395;28;20371;-72
2022/03/28 09:31:20;;;;;;;;;;;13.60;67.30;;;;;;8420030;28;19927;-72
2022/03/28 09:35:23;;;;;;;;;;;13.80;67.70;;;;;;8421041;28;19961;-72
2022/03/28 09:39:29;;;;;;;;;;;13.90;67.80;;;;;;8401529;28;19920;-72
2022/03/28 09:43:30;;;;;;;;;;;14.10;68.00;;;;;;8422037;28;19924;-72
2022/03/28 09:47:32;;;;;;;;;;;14.20;68.00;;;;;;8403617;28;19920;-72
2022/03/28 09:51:35;;;;;;;;;;;14.30;68.20;;;;;;8403971;28;20371;-72
2022/03/28 09:55:50;;;;;;;;;;;14.60;68.90;;;;;;8397250;28;19921;-72
2022/03/28 10:00:09;;;;;;;;;;;14.70;69.20;;;;;;8394741;28;19927;-73
2022/03/28 10:04:11;;;;;;;;;;;14.90;69.50;;;;;;8417557;28;19927;-73
2022/03/28 10:08:13;;;;;;;;;;;15.20;69.50;;;;;;8410058;28;19931;-72
2022/03/28 10:12:15;;;;;;;;;;;15.50;70.20;;;;;;8403593;28;19927;-72
2022/03/28 10:16:17;;;;;;;;;;;15.80;71.20;;;;;;8424386;28;20359;-72
2022/03/28 10:20:19;;;;;;;;;;;16.00;72.30;;;;;;8425991;28;19943;-72
2022/03/28 10:24:37;;;;;;;;;;;16.50;75.90;;;;;;8421700;28;20418;-72
2022/03/28 10:28:39;;;;;;;;;;;16.90;81.50;;;;;;8404247;28;19931;-73
2022/03/28 10:32:41;;;;;;;;;;;17.40;86.70;;;;;;8408408;28;19927;-72
2022/03/28 10:36:44;;;;;;;;;;;17.60;90.60;;;;;;8408410;28;19920;-73
2022/03/28 10:40:53;;;;;;;;;;;17.70;92.40;;;;;;8415870;28;20288;-73
2022/03/28 10:44:59;;;;;;;;;;;18.00;94.10;;;;;;8418018;28;20294;-72
2022/03/28 10:49:01;;;;;;;;;;;18.40;95.10;;;;;;8397535;28;19931;-72
2022/03/28 10:53:09;;;;;;;;;;;18.60;94.60;;;;;;8416625;28;20319;-72
2022/03/28 10:57:27;;;;;;;;;;;18.50;93.90;;;;;;8425448;28;19927;-73
2022/03/28 11:01:28;;;;;;;;;;;18.40;92.60;;;;;;8400412;28;19928;-71
2022/03/28 11:05:50;;;;;;;;;;;18.50;90.60;;;;;;8413241;28;19925;-71
2022/03/28 11:09:58;;;;;;;;;;;18.60;90.10;;;;;;8411365;28;19927;-71
2022/03/28 11:13:59;;;;;;;;;;;19.00;91.60;;;;;;8420591;28;19919;-70
2022/03/28 11:18:09;;;;;;;;;;;19.50;92.80;;;;;;8425026;28;19920;-71
2022/03/28 11:22:11;;;;;;;;;;;19.80;94.40;;;;;;8417963;28;20289;-71
2022/03/28 11:26:21;;;;;;;;;;;20.00;95.30;;;;;;8431888;28;19959;-71
2022/03/28 11:30:23;;;;;;;;;;;20.00;94.10;;;;;;8423254;28;19919;-70
2022/03/28 11:34:25;;;;;;;;;;;20.00;92.80;;;;;;8402167;28;19927;-71
2022/03/28 11:38:32;;;;;;;;;;;19.90;92.50;;;;;;8401858;28;19920;-70
2022/03/28 11:42:35;;;;;;;;;;;20.00;91.60;;;;;;8420145;28;20310;-71
2022/03/28 11:46:36;;;;;;;;;;;20.20;90.20;;;;;;8426468;28;19927;-71
2022/03/28 11:50:38;;;;;;;;;;;20.40;90.60;;;;;;8396990;28;19942;-70
2022/03/28 11:54:40;;;;;;;;;;;20.90;90.60;;;;;;8406469;28;19939;-70
2022/03/28 11:58:41;;;;;;;;;;;21.40;92.30;;;;;;8421916;28;19935;-71
2022/03/28 12:02:56;;;;;;;;;;;21.90;93.30;;;;;;8420177;28;19928;-70
2022/03/28 12:06:58;;;;;;;;;;;22.20;93.80;;;;;;8421688;28;19926;-71
2022/03/28 12:11:00;;;;;;;;;;;22.40;94.10;;;;;;8417457;28;19928;-71
2022/03/28 12:15:03;;;;;;;;;;;22.80;95.30;;;;;;8417678;28;20382;-71
2022/03/28 12:19:21;;;;;;;;;;;23.10;95.40;;;;;;8419932;28;19920;-71
2022/03/28 12:23:28;;;;;;;;;;;23.50;95.30;;;;;;8420267;28;19978;-71
2022/03/28 12:27:31;;;;;;;;;;;24.10;94.90;;;;;;8423220;28;19928;-71
2022/03/28 12:31:32;;;;;;;;;;;24.00;93.00;;;;;;8415958;28;19927;-71
2022/03/28 12:35:35;;;;;;;;;;;23.70;90.80;;;;;;8402966;28;19969;-71
2022/03/28 12:39:37;;;;;;;;;;;23.30;90.10;;;;;;8421628;28;19920;-71
2022/03/28 12:43:44;;;;;;;;;;;23.10;89.50;;;;;;8418085;28;19924;-71
2022/03/28 12:48:15;;;;;;;;;;;22.70;83.40;;;;;;8421335;28;19920;-71
2022/03/28 12:52:24;;;;;;;;;;;22.10;78.50;;;;;;8398142;28;20255;-70
2022/03/28 12:56:27;;;;;;;;;;;21.80;75.00;;;;;;8421959;28;19926;-71
2022/03/28 13:00:30;;;;;;;;;;;21.50;72.30;;;;;;8414856;28;19924;-71
2022/03/28 13:04:41;;;;;;;;;;;21.20;70.50;;;;;;8422529;28;19967;-71
2022/03/28 13:08:47;;;;;;;;;;;21.20;68.90;;;;;;8419164;28;20000;-71
2022/03/28 13:12:54;;;;;;;;;;;21.20;67.40;;;;;;8425150;28;19924;-71
2022/03/28 13:17:05;;;;;;;;;;;21.00;66.30;;;;;;8416796;28;19932;-71
2022/03/28 13:21:13;;;;;;;;;;;20.80;66.80;;;;;;8397584;28;19928;-71
2022/03/28 13:25:19;;;;;;;;;;;20.60;65.20;;;;;;8396397;28;19921;-70
2022/03/28 13:29:26;;;;;;;;;;;20.80;64.70;;;;;;8419942;28;19924;-71
2022/03/28 13:33:27;;;;;;;;;;;21.00;64.70;;;;;;8416418;28;19975;-70
2022/03/28 13:37:29;;;;;;;;;;;21.20;64.10;;;;;;8418195;28;19939;-71
2022/03/28 13:41:31;;;;;;;;;;;21.20;63.20;;;;;;8407702;28;19927;-70
2022/03/28 13:45:33;;;;;;;;;;;21.10;61.80;;;;;;8427149;28;19920;-71
2022/03/28 13:49:35;;;;;;;;;;;20.90;60.00;;;;;;8427496;28;19927;-71
2022/03/28 13:53:40;;;;;;;;;;;20.70;59.20;;;;;;8422908;28;19927;-71
2022/03/28 13:57:41;;;;;;;;;;;20.60;58.80;;;;;;8425966;28;19919;-70
2022/03/28 14:01:43;;;;;;;;;;;20.50;58.80;;;;;;8434774;28;20238;-70
2022/03/28 14:05:51;;;;;;;;;;;20.50;58.80;;;;;;8429038;28;19920;-71
2022/03/28 14:09:52;;;;;;;;;;;20.60;59.00;;;;;;8407957;28;19927;-71
2022/03/28 14:13:54;;;;;;;;;;;21.10;59.80;;;;;;8408160;28;19927;-71
2022/03/28 14:17:56;;;;;;;;;;;21.80;62.00;;;;;;8426166;28;19953;-71
2022/03/28 14:21:58;;;;;;;;;;;22.60;64.80;;;;;;8425397;28;19920;-71
2022/03/28 14:26:01;;;;;;;;;;;23.30;67.70;;;;;;8420350;28;20375;-71
2022/03/28 14:30:03;;;;;;;;;;;23.40;68.50;;;;;;8424049;28;19967;-71
2022/03/28 14:34:05;;;;;;;;;;;23.40;66.20;;;;;;8407005;28;19936;-71
2022/03/28 14:38:09;;;;;;;;;;;23.80;65.00;;;;;;8395635;28;19924;-71
2022/03/28 14:42:11;;;;;;;;;;;24.10;66.60;;;;;;8397222;28;19924;-71
2022/03/28 14:50:33;;;;;;;;;;;24.10;65.40;;;;;;8397611;28;20021;-71
2022/03/28 14:54:35;;;;;;;;;;;24.10;64.40;;;;;;8394261;28;19920;-71
2022/03/28 14:58:40;;;;;;;;;;;24.40;64.10;;;;;;8394078;28;20346;-71
2022/03/28 15:02:47;;;;;;;;;;;24.40;63.00;;;;;;8395098;28;20344;-71
2022/03/28 15:06:49;;;;;;;;;;;24.30;62.80;;;;;;8395998;28;19932;-70
2022/03/28 15:10:51;;;;;;;;;;;24.50;63.10;;;;;;8395339;28;19920;-71
2022/03/28 15:14:53;;;;;;;;;;;24.50;63.30;;;;;;8391006;28;19924;-71
2022/03/28 15:18:54;;;;;;;;;;;24.50;63.40;;;;;;8387926;28;20363;-71
2022/03/28 15:22:56;;;;;;;;;;;24.30;62.60;;;;;;8388252;28;19927;-71
2022/03/28 15:26:58;;;;;;;;;;;24.40;63.40;;;;;;8373131;28;19929;-71
2022/03/28 15:31:18;;;;;;;;;;;24.50;62.10;;;;;;8389207;28;19932;-71
2022/03/28 15:35:20;;;;;;;;;;;24.70;62.20;;;;;;8392169;28;20544;-71
2022/03/28 15:39:22;;;;;;;;;;;24.70;60.80;;;;;;8388828;28;20011;-71
2022/03/28 15:43:25;;;;;;;;;;;24.70;60.20;;;;;;8401570;28;19925;-71
2022/03/28 15:47:27;;;;;;;;;;;24.70;59.60;;;;;;8392325;28;19920;-71
2022/03/28 15:51:28;;;;;;;;;;;24.80;59.00;;;;;;8389393;28;19931;-71
2022/03/28 15:55:30;;;;;;;;;;;24.60;58.40;;;;;;8391471;28;19924;-71
2022/03/28 15:59:32;;;;;;;;;;;24.50;57.90;;;;;;8389382;28;20287;-71
2022/03/28 16:03:33;;;;;;;;;;;24.50;57.40;;;;;;8390073;28;19924;-71
2022/03/28 16:07:36;;;;;;;;;;;24.80;58.00;;;;;;8386401;28;19920;-71
2022/03/28 16:11:38;;;;;;;;;;;25.10;57.80;;;;;;8386390;28;19935;-71
2022/03/28 16:15:40;;;;;;;;;;;25.20;56.70;;;;;;8387320;28;19951;-71
2022/03/28 16:19:42;;;;;;;;;;;24.90;55.80;;;;;;8387567;28;19924;-71
2022/03/28 16:23:44;;;;;;;;;;;24.70;54.60;;;;;;8387609;28;20441;-71
2022/03/28 16:27:46;;;;;;;;;;;24.40;53.40;;;;;;8386218;28;19932;-70
2022/03/28 16:31:48;;;;;;;;;;;24.10;52.80;;;;;;8395654;28;19928;-71
2022/03/28 16:35:52;;;;;;;;;;;24.00;52.60;;;;;;8382811;28;19924;-71
2022/03/28 16:39:56;;;;;;;;;;;23.80;51.90;;;;;;8387305;28;20388;-71
2022/03/28 16:43:58;;;;;;;;;;;23.30;51.10;;;;;;8397544;28;19939;-71
2022/03/28 16:47:59;;;;;;;;;;;23.00;50.80;;;;;;8391280;28;19940;-71
2022/03/28 16:52:01;;;;;;;;;;;22.80;50.50;;;;;;8398677;28;19985;-71
2022/03/28 16:56:03;;;;;;;;;;;22.40;50.00;;;;;;8389609;28;19975;-71
2022/03/28 17:00:07;;;;;;;;;;;22.00;49.70;;;;;;8392607;28;20006;-71
2022/03/28 17:04:08;;;;;;;;;;;21.80;50.40;;;;;;8401817;28;20446;-71
2022/03/28 17:08:11;;;;;;;;;;;21.70;51.20;;;;;;8387027;28;19924;-71
2022/03/28 17:12:17;;;;;;;;;;;21.50;51.80;;;;;;8401769;28;19935;-71
2022/03/28 17:16:24;;;;;;;;;;;21.30;52.20;;;;;;8404157;28;19928;-71
2022/03/28 17:20:28;;;;;;;;;;;21.10;52.30;;;;;;8393192;28;19920;-71
2022/03/28 17:24:30;;;;;;;;;;;20.80;52.50;;;;;;8372925;28;20019;-71
2022/03/28 17:28:32;;;;;;;;;;;20.50;52.70;;;;;;8393109;28;19932;-70
2022/03/28 17:32:41;;;;;;;;;;;20.20;52.80;;;;;;8393097;28;19935;-71
2022/03/28 17:36:44;;;;;;;;;;;19.80;52.90;;;;;;8381290;28;19927;-70
2022/03/28 17:40:45;;;;;;;;;;;19.50;52.90;;;;;;8390855;28;20394;-71
2022/03/28 17:44:47;;;;;;;;;;;19.20;52.90;;;;;;8394651;28;19943;-71
2022/03/28 17:48:49;;;;;;;;;;;19.00;53.10;;;;;;8392164;28;20045;-71
2022/03/28 17:52:51;;;;;;;;;;;18.80;53.00;;;;;;8388798;28;19931;-71
2022/03/28 17:56:52;;;;;;;;;;;18.50;52.80;;;;;;8383871;28;19968;-71
2022/03/28 18:00:55;;;;;;;;;;;18.30;52.90;;;;;;8393261;28;19943;-71
2022/03/28 18:04:57;;;;;;;;;;;18.10;53.00;;;;;;8407271;28;19928;-71
2022/03/28 18:09:00;;;;;;;;;;;17.80;52.90;;;;;;8392944;28;19920;-71
2022/03/28 18:13:01;;;;;;;;;;;17.50;52.90;;;;;;8394749;28;20265;-70
2022/03/28 18:17:03;;;;;;;;;;;17.20;52.90;;;;;;8376662;28;20454;-71
2022/03/28 18:21:05;;;;;;;;;;;17.00;53.00;;;;;;8393643;28;19962;-71
2022/03/28 18:25:12;;;;;;;;;;;16.80;53.10;;;;;;8391385;28;19920;-71
2022/03/28 18:29:14;;;;;;;;;;;16.50;53.40;;;;;;8373710;28;19931;-71
2022/03/28 18:33:17;;;;;;;;;;;16.30;53.70;;;;;;8407496;28;19962;-70
2022/03/28 18:37:19;;;;;;;;;;;16.00;54.10;;;;;;8385713;28;19924;-71
2022/03/28 18:41:21;;;;;;;;;;;15.80;54.50;;;;;;8385973;28;19931;-71
2022/03/28 18:45:23;;;;;;;;;;;15.60;54.90;;;;;;8386509;28;20305;-71
2022/03/28 18:49:24;;;;;;;;;;;15.40;55.20;;;;;;8386351;28;19924;-71
2022/03/28 18:53:26;;;;;;;;;;;15.20;55.60;;;;;;8390765;28;19929;-71
2022/03/28 18:57:43;;;;;;;;;;;15.10;55.90;;;;;;8390286;28;20791;-71
2022/03/28 19:01:44;;;;;;;;;;;15.00;56.20;;;;;;8391503;28;20471;-70
2022/03/28 19:05:46;;;;;;;;;;;14.80;56.50;;;;;;8389184;28;19928;-71
2022/03/28 19:09:48;;;;;;;;;;;14.60;56.90;;;;;;8373437;28;19920;-71
2022/03/28 19:13:50;;;;;;;;;;;14.50;57.40;;;;;;8401246;28;19920;-71
2022/03/28 19:17:52;;;;;;;;;;;14.40;57.60;;;;;;8386666;28;20140;-71
2022/03/28 19:22:01;;;;;;;;;;;14.20;57.90;;;;;;8390619;28;19984;-70
2022/03/28 19:26:03;;;;;;;;;;;14.10;58.00;;;;;;8392397;28;20003;-71
2022/03/28 19:30:06;;;;;;;;;;;14.00;58.20;;;;;;8390621;28;20363;-70
2022/03/28 19:34:07;;;;;;;;;;;14.00;58.40;;;;;;8385883;28;19931;-70
2022/03/28 19:38:29;;;;;;;;;;;13.90;58.50;;;;;;8386725;28;19959;-70
2022/03/28 19:42:31;;;;;;;;;;;13.80;58.70;;;;;;8365240;28;19963;-70
2022/03/28 19:46:33;;;;;;;;;;;13.70;58.90;;;;;;8383498;28;20299;-71
2022/03/28 19:50:48;;;;;;;;;;;13.60;59.10;;;;;;8385609;28;20347;-71
2022/03/28 19:54:51;;;;;;;;;;;13.50;59.40;;;;;;8369682;28;19920;-70
2022/03/28 19:58:53;;;;;;;;;;;13.40;59.70;;;;;;8385305;28;19920;-71
2022/03/28 20:02:55;;;;;;;;;;;13.30;60.00;;;;;;8380495;28;19920;-70
2022/03/28 20:06:57;;;;;;;;;;;13.20;60.30;;;;;;8386449;28;19930;-70
2022/03/28 20:11:11;;;;;;;;;;;13.10;60.40;;;;;;8368126;28;19928;-71
2022/03/28 20:15:25;;;;;;;;;;;13.10;60.70;;;;;;8384685;28;20596;-70
2022/03/28 20:19:28;;;;;;;;;;;13.00;60.80;;;;;;8384874;28;19927;-71
2022/03/28 20:23:30;;;;;;;;;;;12.90;61.00;;;;;;8387563;28;19924;-70
2022/03/28 20:27:32;;;;;;;;;;;12.80;61.40;;;;;;8386192;28;19935;-70
2022/03/28 20:31:36;;;;;;;;;;;12.80;61.70;;;;;;8377514;28;19924;-70
2022/03/28 20:35:38;;;;;;;;;;;12.80;61.60;;;;;;8381159;28;19982;-70
2022/03/28 20:39:41;;;;;;;;;;;12.80;61.70;;;;;;8365772;28;20280;-70
2022/03/28 20:43:46;;;;;;;;;;;12.70;61.80;;;;;;8365403;28;19920;-70
2022/03/28 20:47:48;;;;;;;;;;;12.70;61.90;;;;;;8375857;28;19928;-70
2022/03/28 20:51:51;;;;;;;;;;;12.60;61.90;;;;;;8380959;28;19928;-70
2022/03/28 20:56:04;;;;;;;;;;;12.60;61.90;;;;;;8385289;28;19924;-71
2022/03/28 21:00:06;;;;;;;;;;;12.60;62.10;;;;;;8383930;28;20341;-70
2022/03/28 21:04:09;;;;;;;;;;;12.50;62.40;;;;;;8407170;28;19935;-70
2022/03/28 21:08:13;;;;;;;;;;;12.40;62.70;;;;;;8402117;28;19921;-70
2022/03/28 21:12:15;;;;;;;;;;;12.30;62.90;;;;;;8401393;28;19920;-70
2022/03/28 21:16:16;;;;;;;;;;;12.30;63.10;;;;;;8383406;28;19927;-71
2022/03/28 21:20:18;;;;;;;;;;;12.20;63.30;;;;;;8399742;28;19931;-70
2022/03/28 21:24:23;;;;;;;;;;;12.10;63.50;;;;;;8383201;28;19962;-70
2022/03/28 21:28:25;;;;;;;;;;;12.00;63.70;;;;;;8384128;28;19920;-70
2022/03/28 21:32:27;;;;;;;;;;;11.90;63.90;;;;;;8406336;28;19923;-71
2022/03/28 21:36:29;;;;;;;;;;;11.90;63.80;;;;;;8397722;28;20265;-70
2022/03/28 21:40:30;;;;;;;;;;;11.90;63.70;;;;;;8404668;28;19939;-70
2022/03/28 21:44:34;;;;;;;;;;;11.80;63.50;;;;;;8402380;28;19951;-70
2022/03/28 21:48:37;;;;;;;;;;;11.80;63.50;;;;;;8393857;28;19928;-70
2022/03/28 21:52:39;;;;;;;;;;;11.70;63.40;;;;;;8384402;28;20363;-70
2022/03/28 21:56:40;;;;;;;;;;;11.70;63.40;;;;;;8407805;28;19921;-70
2022/03/28 22:00:48;;;;;;;;;;;11.60;63.40;;;;;;8403438;28;20208;-70
2022/03/28 22:04:50;;;;;;;;;;;11.50;63.50;;;;;;8415897;28;20367;-70
2022/03/28 22:08:52;;;;;;;;;;;11.50;63.60;;;;;;8415099;28;20360;-70
2022/03/28 22:12:53;;;;;;;;;;;11.50;63.70;;;;;;8413768;28;20268;-70
2022/03/28 22:16:55;;;;;;;;;;;11.40;63.70;;;;;;8420300;28;20014;-70
2022/03/28 22:20:57;;;;;;;;;;;11.40;63.70;;;;;;8419854;28;19938;-70
2022/03/28 22:24:59;;;;;;;;;;;11.40;63.80;;;;;;8380141;28;19925;-70
2022/03/28 22:29:01;;;;;;;;;;;11.30;63.90;;;;;;8381483;28;20303;-70
2022/03/28 22:33:03;;;;;;;;;;;11.20;64.00;;;;;;8410811;28;19939;-70
2022/03/28 22:37:04;;;;;;;;;;;11.10;64.10;;;;;;8380508;28;19935;-70
2022/03/28 22:41:06;;;;;;;;;;;11.00;64.30;;;;;;8409901;28;19924;-70
2022/03/28 22:45:08;;;;;;;;;;;11.00;64.60;;;;;;8409379;28;19924;-70
2022/03/28 22:49:10;;;;;;;;;;;10.90;64.60;;;;;;8410322;28;19924;-70
2022/03/28 22:53:14;;;;;;;;;;;10.90;64.80;;;;;;8405489;28;19935;-70
2022/03/28 22:57:16;;;;;;;;;;;10.80;65.00;;;;;;8399748;28;19944;-70
2022/03/28 23:01:18;;;;;;;;;;;10.80;65.10;;;;;;8404711;28;19932;-70
2022/03/28 23:05:19;;;;;;;;;;;10.70;65.40;;;;;;8385359;28;19938;-70
2022/03/28 23:09:21;;;;;;;;;;;10.60;65.50;;;;;;8407988;28;19943;-70
2022/03/28 23:13:23;;;;;;;;;;;10.50;65.60;;;;;;8407843;28;19932;-70
2022/03/28 23:17:24;;;;;;;;;;;10.40;65.90;;;;;;8417023;28;20398;-70
2022/03/28 23:21:26;;;;;;;;;;;10.30;66.20;;;;;;8407694;28;19951;-70
2022/03/28 23:25:29;;;;;;;;;;;10.30;66.40;;;;;;8418003;28;19924;-70
2022/03/28 23:29:30;;;;;;;;;;;10.20;66.60;;;;;;8416073;28;19928;-70
2022/03/28 23:33:32;;;;;;;;;;;10.10;66.80;;;;;;8388776;28;19944;-70
2022/03/28 23:37:35;;;;;;;;;;;10.00;67.20;;;;;;8397367;28;19935;-70
2022/03/28 23:41:36;;;;;;;;;;;9.90;68.80;;;;;;8399124;28;20000;-70
2022/03/28 23:45:38;;;;;;;;;;;9.90;69.60;;;;;;8403676;28;20280;-70